sensor_id;sensor_type;location;lat;lon;timestamp;P1;durP1;ratioP1;P2;durP2;ratioP2
4166;SDS011;2097;51.104;7.150;2022-08-30T00:01:14;61.53;;;3.67;;
4166;SDS011;2097;51.104;7.150;2022-08-30T00:03:47;61.27;;;2.73;;
4166;SDS011;2097;51.104;7.150;2022-08-30T00:06:15;62.20;;;3.23;;
4166;SDS011;2097;51.104;7.150;2022-08-30T00:08:44;61.50;;;3.70;;
4166;SDS011;2097;51.104;7.150;2022-08-30T00:11:14;61.47;;;3.50;;
4166;SDS011;2097;51.104;7.150;2022-08-30T00:13:45;62.20;;;3.90;;
4166;SDS011;2097;51.104;7.150;2022-08-30T00:16:14;62.40;;;4.10;;
4166;SDS011;2097;51.104;7.150;2022-08-30T00:18:41;62.07;;;3.43;;
4166;SDS011;2097;51.104;7.150;2022-08-30T00:21:08;62.00;;;3.57;;
4166;SDS011;2097;51.104;7.150;2022-08-30T00:23:36;62.03;;;3.60;;
4166;SDS011;2097;51.104;7.150;2022-08-30T00:26:04;61.80;;;3.20;;
4166;SDS011;2097;51.104;7.150;2022-08-30T00:28:32;62.17;;;3.63;;
4166;SDS011;2097;51.104;7.150;2022-08-30T00:31:00;62.03;;;3.67;;
4166;SDS011;2097;51.104;7.150;2022-08-30T00:33:27;61.97;;;3.67;;
4166;SDS011;2097;51.104;7.150;2022-08-30T00:35:55;62.23;;;3.80;;
4166;SDS011;2097;51.104;7.150;2022-08-30T00:38:21;62.03;;;3.43;;
4166;SDS011;2097;51.104;7.150;2022-08-30T00:40:49;62.17;;;3.87;;
4166;SDS011;2097;51.104;7.150;2022-08-30T00:43:18;61.60;;;3.43;;
4166;SDS011;2097;51.104;7.150;2022-08-30T00:45:47;62.00;;;3.33;;
4166;SDS011;2097;51.104;7.150;2022-08-30T00:48:16;61.83;;;3.53;;
4166;SDS011;2097;51.104;7.150;2022-08-30T00:50:44;61.70;;;3.27;;
4166;SDS011;2097;51.104;7.150;2022-08-30T00:53:14;61.80;;;3.43;;
4166;SDS011;2097;51.104;7.150;2022-08-30T00:55:45;62.20;;;3.87;;
4166;SDS011;2097;51.104;7.150;2022-08-30T00:58:15;61.70;;;4.00;;
4166;SDS011;2097;51.104;7.150;2022-08-30T01:00:46;61.37;;;4.00;;
4166;SDS011;2097;51.104;7.150;2022-08-30T01:03:14;62.40;;;4.80;;
4166;SDS011;2097;51.104;7.150;2022-08-30T01:05:42;62.20;;;4.47;;
4166;SDS011;2097;51.104;7.150;2022-08-30T01:08:10;62.00;;;3.73;;
4166;SDS011;2097;51.104;7.150;2022-08-30T01:10:39;62.10;;;4.07;;
4166;SDS011;2097;51.104;7.150;2022-08-30T01:13:06;61.97;;;4.07;;
4166;SDS011;2097;51.104;7.150;2022-08-30T01:15:34;61.80;;;3.97;;
4166;SDS011;2097;51.104;7.150;2022-08-30T01:18:01;62.00;;;3.67;;
4166;SDS011;2097;51.104;7.150;2022-08-30T01:20:30;62.10;;;4.47;;
4166;SDS011;2097;51.104;7.150;2022-08-30T01:23:05;62.47;;;4.40;;
4166;SDS011;2097;51.104;7.150;2022-08-30T01:25:36;61.90;;;4.50;;
4166;SDS011;2097;51.104;7.150;2022-08-30T01:28:06;62.30;;;4.80;;
4166;SDS011;2097;51.104;7.150;2022-08-30T01:30:36;62.53;;;4.57;;
4166;SDS011;2097;51.104;7.150;2022-08-30T01:33:04;61.73;;;4.33;;
4166;SDS011;2097;51.104;7.150;2022-08-30T01:35:33;62.03;;;4.20;;
4166;SDS011;2097;51.104;7.150;2022-08-30T01:38:12;61.87;;;3.57;;
4166;SDS011;2097;51.104;7.150;2022-08-30T01:40:40;61.87;;;4.07;;
4166;SDS011;2097;51.104;7.150;2022-08-30T01:43:07;61.47;;;3.80;;
4166;SDS011;2097;51.104;7.150;2022-08-30T01:45:36;61.73;;;3.73;;
4166;SDS011;2097;51.104;7.150;2022-08-30T01:48:03;61.87;;;3.97;;
4166;SDS011;2097;51.104;7.150;2022-08-30T01:50:30;61.57;;;3.70;;
4166;SDS011;2097;51.104;7.150;2022-08-30T01:52:57;61.87;;;3.60;;
4166;SDS011;2097;51.104;7.150;2022-08-30T01:55:25;61.93;;;3.57;;
4166;SDS011;2097;51.104;7.150;2022-08-30T01:57:52;61.70;;;3.57;;
4166;SDS011;2097;51.104;7.150;2022-08-30T02:00:19;61.67;;;3.70;;
4166;SDS011;2097;51.104;7.150;2022-08-30T02:02:46;62.00;;;3.60;;
4166;SDS011;2097;51.104;7.150;2022-08-30T02:05:13;62.07;;;3.50;;
4166;SDS011;2097;51.104;7.150;2022-08-30T02:07:40;61.67;;;3.77;;
4166;SDS011;2097;51.104;7.150;2022-08-30T02:10:07;61.77;;;3.70;;
4166;SDS011;2097;51.104;7.150;2022-08-30T02:12:36;62.10;;;3.53;;
4166;SDS011;2097;51.104;7.150;2022-08-30T02:15:03;61.90;;;3.90;;
4166;SDS011;2097;51.104;7.150;2022-08-30T02:17:31;61.93;;;3.60;;
4166;SDS011;2097;51.104;7.150;2022-08-30T02:19:58;61.83;;;3.50;;
4166;SDS011;2097;51.104;7.150;2022-08-30T02:22:25;62.03;;;3.80;;
4166;SDS011;2097;51.104;7.150;2022-08-30T02:24:51;61.77;;;3.50;;
4166;SDS011;2097;51.104;7.150;2022-08-30T02:27:18;61.97;;;3.70;;
4166;SDS011;2097;51.104;7.150;2022-08-30T02:29:46;61.53;;;3.47;;
4166;SDS011;2097;51.104;7.150;2022-08-30T02:32:13;62.07;;;3.80;;
4166;SDS011;2097;51.104;7.150;2022-08-30T02:34:40;61.97;;;3.40;;
4166;SDS011;2097;51.104;7.150;2022-08-30T02:37:06;61.77;;;3.33;;
4166;SDS011;2097;51.104;7.150;2022-08-30T02:39:33;61.97;;;3.17;;
4166;SDS011;2097;51.104;7.150;2022-08-30T02:42:00;61.70;;;3.37;;
4166;SDS011;2097;51.104;7.150;2022-08-30T02:44:27;61.83;;;3.73;;
4166;SDS011;2097;51.104;7.150;2022-08-30T02:46:55;61.57;;;2.97;;
4166;SDS011;2097;51.104;7.150;2022-08-30T02:49:22;61.67;;;3.03;;
4166;SDS011;2097;51.104;7.150;2022-08-30T02:51:49;61.50;;;3.70;;
4166;SDS011;2097;51.104;7.150;2022-08-30T02:54:16;61.70;;;3.53;;
4166;SDS011;2097;51.104;7.150;2022-08-30T02:56:44;61.90;;;3.63;;
4166;SDS011;2097;51.104;7.150;2022-08-30T02:59:11;61.97;;;3.50;;
4166;SDS011;2097;51.104;7.150;2022-08-30T03:01:37;61.77;;;3.70;;
4166;SDS011;2097;51.104;7.150;2022-08-30T03:04:05;61.70;;;3.77;;
4166;SDS011;2097;51.104;7.150;2022-08-30T03:06:33;61.77;;;3.47;;
4166;SDS011;2097;51.104;7.150;2022-08-30T03:09:00;61.30;;;3.50;;
4166;SDS011;2097;51.104;7.150;2022-08-30T03:11:27;61.73;;;3.43;;
4166;SDS011;2097;51.104;7.150;2022-08-30T03:13:54;61.43;;;3.17;;
4166;SDS011;2097;51.104;7.150;2022-08-30T03:16:21;61.27;;;3.40;;
4166;SDS011;2097;51.104;7.150;2022-08-30T03:18:48;60.93;;;3.50;;
4166;SDS011;2097;51.104;7.150;2022-08-30T03:21:20;61.97;;;3.40;;
4166;SDS011;2097;51.104;7.150;2022-08-30T03:23:47;61.67;;;3.53;;
4166;SDS011;2097;51.104;7.150;2022-08-30T03:26:14;62.00;;;3.40;;
4166;SDS011;2097;51.104;7.150;2022-08-30T03:28:41;61.47;;;3.60;;
4166;SDS011;2097;51.104;7.150;2022-08-30T03:31:08;62.00;;;3.70;;
4166;SDS011;2097;51.104;7.150;2022-08-30T03:33:36;61.80;;;3.63;;
4166;SDS011;2097;51.104;7.150;2022-08-30T03:36:05;62.20;;;3.53;;
4166;SDS011;2097;51.104;7.150;2022-08-30T03:38:33;61.87;;;3.63;;
4166;SDS011;2097;51.104;7.150;2022-08-30T03:41:00;62.20;;;4.07;;
4166;SDS011;2097;51.104;7.150;2022-08-30T03:43:28;62.30;;;4.30;;
4166;SDS011;2097;51.104;7.150;2022-08-30T03:45:57;62.07;;;4.20;;
4166;SDS011;2097;51.104;7.150;2022-08-30T03:48:25;62.30;;;4.30;;
4166;SDS011;2097;51.104;7.150;2022-08-30T03:50:52;63.17;;;5.37;;
4166;SDS011;2097;51.104;7.150;2022-08-30T03:53:19;63.07;;;5.53;;
4166;SDS011;2097;51.104;7.150;2022-08-30T03:55:47;63.13;;;6.00;;
4166;SDS011;2097;51.104;7.150;2022-08-30T03:58:14;62.87;;;5.77;;
4166;SDS011;2097;51.104;7.150;2022-08-30T04:00:41;62.77;;;5.63;;
4166;SDS011;2097;51.104;7.150;2022-08-30T04:03:08;62.33;;;5.30;;
4166;SDS011;2097;51.104;7.150;2022-08-30T04:05:34;62.43;;;5.03;;
4166;SDS011;2097;51.104;7.150;2022-08-30T04:08:01;62.47;;;4.77;;
4166;SDS011;2097;51.104;7.150;2022-08-30T04:10:29;61.70;;;4.13;;
4166;SDS011;2097;51.104;7.150;2022-08-30T04:12:58;62.17;;;4.30;;
4166;SDS011;2097;51.104;7.150;2022-08-30T04:15:25;62.03;;;4.10;;
4166;SDS011;2097;51.104;7.150;2022-08-30T04:17:51;61.70;;;3.63;;
4166;SDS011;2097;51.104;7.150;2022-08-30T04:20:19;61.67;;;3.80;;
4166;SDS011;2097;51.104;7.150;2022-08-30T04:22:45;61.60;;;3.67;;
4166;SDS011;2097;51.104;7.150;2022-08-30T04:25:12;62.07;;;3.90;;
4166;SDS011;2097;51.104;7.150;2022-08-30T04:27:39;61.67;;;3.73;;
4166;SDS011;2097;51.104;7.150;2022-08-30T04:30:08;61.60;;;3.33;;
4166;SDS011;2097;51.104;7.150;2022-08-30T04:32:36;61.60;;;3.57;;
4166;SDS011;2097;51.104;7.150;2022-08-30T04:35:04;61.57;;;3.63;;
4166;SDS011;2097;51.104;7.150;2022-08-30T04:37:31;61.37;;;3.30;;
4166;SDS011;2097;51.104;7.150;2022-08-30T04:39:58;61.50;;;3.37;;
4166;SDS011;2097;51.104;7.150;2022-08-30T04:42:25;61.57;;;3.70;;
4166;SDS011;2097;51.104;7.150;2022-08-30T04:44:55;61.40;;;3.27;;
4166;SDS011;2097;51.104;7.150;2022-08-30T04:47:23;61.53;;;3.30;;
4166;SDS011;2097;51.104;7.150;2022-08-30T04:49:50;61.50;;;3.27;;
4166;SDS011;2097;51.104;7.150;2022-08-30T04:52:17;62.20;;;3.40;;
4166;SDS011;2097;51.104;7.150;2022-08-30T04:54:44;61.53;;;3.40;;
4166;SDS011;2097;51.104;7.150;2022-08-30T04:57:11;61.70;;;3.60;;
4166;SDS011;2097;51.104;7.150;2022-08-30T04:59:38;61.43;;;3.37;;
4166;SDS011;2097;51.104;7.150;2022-08-30T05:02:04;62.70;;;3.53;;
4166;SDS011;2097;51.104;7.150;2022-08-30T05:04:33;61.40;;;3.30;;
4166;SDS011;2097;51.104;7.150;2022-08-30T05:06:59;61.67;;;3.73;;
4166;SDS011;2097;51.104;7.150;2022-08-30T05:09:26;61.57;;;3.80;;
4166;SDS011;2097;51.104;7.150;2022-08-30T05:11:53;62.30;;;4.10;;
4166;SDS011;2097;51.104;7.150;2022-08-30T05:14:20;61.63;;;4.00;;
4166;SDS011;2097;51.104;7.150;2022-08-30T05:16:46;62.57;;;3.67;;
4166;SDS011;2097;51.104;7.150;2022-08-30T05:19:13;61.50;;;3.30;;
4166;SDS011;2097;51.104;7.150;2022-08-30T05:21:41;61.50;;;3.57;;
4166;SDS011;2097;51.104;7.150;2022-08-30T05:24:08;61.83;;;3.77;;
4166;SDS011;2097;51.104;7.150;2022-08-30T05:26:36;61.60;;;3.80;;
4166;SDS011;2097;51.104;7.150;2022-08-30T05:29:04;61.57;;;3.33;;
4166;SDS011;2097;51.104;7.150;2022-08-30T05:31:32;61.60;;;3.80;;
4166;SDS011;2097;51.104;7.150;2022-08-30T05:34:00;61.70;;;3.83;;
4166;SDS011;2097;51.104;7.150;2022-08-30T05:36:29;61.90;;;3.67;;
4166;SDS011;2097;51.104;7.150;2022-08-30T05:39:00;61.67;;;3.70;;
4166;SDS011;2097;51.104;7.150;2022-08-30T05:41:27;62.50;;;4.27;;
4166;SDS011;2097;51.104;7.150;2022-08-30T05:43:54;61.87;;;4.17;;
4166;SDS011;2097;51.104;7.150;2022-08-30T05:46:22;63.70;;;4.10;;
4166;SDS011;2097;51.104;7.150;2022-08-30T05:48:50;62.60;;;3.70;;
4166;SDS011;2097;51.104;7.150;2022-08-30T05:51:18;61.80;;;3.80;;
4166;SDS011;2097;51.104;7.150;2022-08-30T05:53:46;62.70;;;4.03;;
4166;SDS011;2097;51.104;7.150;2022-08-30T05:56:17;66.40;;;3.50;;
4166;SDS011;2097;51.104;7.150;2022-08-30T05:58:45;61.83;;;3.87;;
4166;SDS011;2097;51.104;7.150;2022-08-30T06:01:19;61.50;;;3.80;;
4166;SDS011;2097;51.104;7.150;2022-08-30T06:03:47;61.67;;;3.73;;
4166;SDS011;2097;51.104;7.150;2022-08-30T06:06:13;61.47;;;3.80;;
4166;SDS011;2097;51.104;7.150;2022-08-30T06:08:40;61.57;;;3.77;;
4166;SDS011;2097;51.104;7.150;2022-08-30T06:11:09;62.17;;;4.03;;
4166;SDS011;2097;51.104;7.150;2022-08-30T06:13:39;61.63;;;4.00;;
4166;SDS011;2097;51.104;7.150;2022-08-30T06:16:06;61.80;;;4.07;;
4166;SDS011;2097;51.104;7.150;2022-08-30T06:18:33;61.60;;;3.67;;
4166;SDS011;2097;51.104;7.150;2022-08-30T06:21:00;61.70;;;4.10;;
4166;SDS011;2097;51.104;7.150;2022-08-30T06:23:27;61.70;;;4.03;;
4166;SDS011;2097;51.104;7.150;2022-08-30T06:25:54;62.70;;;4.27;;
4166;SDS011;2097;51.104;7.150;2022-08-30T06:28:21;62.17;;;4.30;;
4166;SDS011;2097;51.104;7.150;2022-08-30T06:30:49;62.07;;;4.07;;
4166;SDS011;2097;51.104;7.150;2022-08-30T06:33:16;61.87;;;3.97;;
4166;SDS011;2097;51.104;7.150;2022-08-30T06:35:43;61.47;;;3.87;;
4166;SDS011;2097;51.104;7.150;2022-08-30T06:38:11;61.67;;;4.00;;
4166;SDS011;2097;51.104;7.150;2022-08-30T06:40:37;61.60;;;3.70;;
4166;SDS011;2097;51.104;7.150;2022-08-30T06:43:04;61.47;;;3.83;;
4166;SDS011;2097;51.104;7.150;2022-08-30T06:45:31;61.50;;;4.27;;
4166;SDS011;2097;51.104;7.150;2022-08-30T06:48:00;64.70;;;5.20;;
4166;SDS011;2097;51.104;7.150;2022-08-30T06:50:27;62.10;;;4.13;;
4166;SDS011;2097;51.104;7.150;2022-08-30T06:52:55;61.00;;;4.23;;
4166;SDS011;2097;51.104;7.150;2022-08-30T06:55:31;61.47;;;3.80;;
4166;SDS011;2097;51.104;7.150;2022-08-30T06:57:58;62.27;;;4.77;;
4166;SDS011;2097;51.104;7.150;2022-08-30T07:00:25;61.37;;;5.13;;
4166;SDS011;2097;51.104;7.150;2022-08-30T07:02:53;62.07;;;4.73;;
4166;SDS011;2097;51.104;7.150;2022-08-30T07:05:21;61.83;;;5.30;;
4166;SDS011;2097;51.104;7.150;2022-08-30T07:07:48;62.60;;;6.10;;
4166;SDS011;2097;51.104;7.150;2022-08-30T07:10:17;62.07;;;5.23;;
4166;SDS011;2097;51.104;7.150;2022-08-30T07:12:45;62.70;;;5.47;;
4166;SDS011;2097;51.104;7.150;2022-08-30T07:15:12;63.10;;;6.10;;
4166;SDS011;2097;51.104;7.150;2022-08-30T07:17:39;62.87;;;6.20;;
4166;SDS011;2097;51.104;7.150;2022-08-30T07:20:25;62.70;;;6.07;;
4166;SDS011;2097;51.104;7.150;2022-08-30T07:22:51;62.17;;;5.23;;
4166;SDS011;2097;51.104;7.150;2022-08-30T07:25:18;62.53;;;4.33;;
4166;SDS011;2097;51.104;7.150;2022-08-30T07:27:45;63.47;;;4.30;;
4166;SDS011;2097;51.104;7.150;2022-08-30T07:30:12;62.30;;;4.63;;
4166;SDS011;2097;51.104;7.150;2022-08-30T07:32:39;63.10;;;5.10;;
4166;SDS011;2097;51.104;7.150;2022-08-30T07:35:07;62.13;;;4.43;;
4166;SDS011;2097;51.104;7.150;2022-08-30T07:37:35;62.27;;;5.00;;
4166;SDS011;2097;51.104;7.150;2022-08-30T07:40:02;62.73;;;5.30;;
4166;SDS011;2097;51.104;7.150;2022-08-30T07:42:30;62.17;;;4.60;;
4166;SDS011;2097;51.104;7.150;2022-08-30T07:44:56;63.00;;;5.70;;
4166;SDS011;2097;51.104;7.150;2022-08-30T07:47:23;62.07;;;4.50;;
4166;SDS011;2097;51.104;7.150;2022-08-30T07:49:50;62.67;;;4.73;;
4166;SDS011;2097;51.104;7.150;2022-08-30T07:52:17;62.47;;;5.20;;
4166;SDS011;2097;51.104;7.150;2022-08-30T07:54:45;63.43;;;5.93;;
4166;SDS011;2097;51.104;7.150;2022-08-30T07:57:11;62.57;;;4.43;;
4166;SDS011;2097;51.104;7.150;2022-08-30T07:59:38;62.50;;;4.43;;
4166;SDS011;2097;51.104;7.150;2022-08-30T08:02:05;62.47;;;4.60;;
4166;SDS011;2097;51.104;7.150;2022-08-30T08:04:32;62.60;;;5.00;;
4166;SDS011;2097;51.104;7.150;2022-08-30T08:07:00;62.80;;;4.90;;
4166;SDS011;2097;51.104;7.150;2022-08-30T08:09:27;62.80;;;4.40;;
4166;SDS011;2097;51.104;7.150;2022-08-30T08:11:55;63.50;;;4.67;;
4166;SDS011;2097;51.104;7.150;2022-08-30T08:14:22;63.27;;;4.23;;
4166;SDS011;2097;51.104;7.150;2022-08-30T08:16:49;62.50;;;4.10;;
4166;SDS011;2097;51.104;7.150;2022-08-30T08:19:15;62.60;;;4.50;;
4166;SDS011;2097;51.104;7.150;2022-08-30T08:21:43;62.10;;;4.40;;
4166;SDS011;2097;51.104;7.150;2022-08-30T08:24:10;62.80;;;5.27;;
4166;SDS011;2097;51.104;7.150;2022-08-30T08:26:38;62.93;;;5.17;;
4166;SDS011;2097;51.104;7.150;2022-08-30T08:29:06;63.30;;;6.60;;
4166;SDS011;2097;51.104;7.150;2022-08-30T08:31:34;64.27;;;7.13;;
4166;SDS011;2097;51.104;7.150;2022-08-30T08:34:02;63.77;;;7.10;;
4166;SDS011;2097;51.104;7.150;2022-08-30T08:36:30;64.17;;;7.50;;
4166;SDS011;2097;51.104;7.150;2022-08-30T08:38:57;67.20;;;7.30;;
4166;SDS011;2097;51.104;7.150;2022-08-30T08:41:30;64.77;;;8.40;;
4166;SDS011;2097;51.104;7.150;2022-08-30T08:44:15;65.53;;;10.37;;
4166;SDS011;2097;51.104;7.150;2022-08-30T08:46:54;64.63;;;9.53;;
4166;SDS011;2097;51.104;7.150;2022-08-30T08:49:29;62.40;;;5.27;;
4166;SDS011;2097;51.104;7.150;2022-08-30T08:51:57;62.67;;;4.83;;
4166;SDS011;2097;51.104;7.150;2022-08-30T08:54:42;62.07;;;3.83;;
4166;SDS011;2097;51.104;7.150;2022-08-30T08:57:14;62.27;;;4.40;;
4166;SDS011;2097;51.104;7.150;2022-08-30T08:59:42;62.43;;;4.07;;
4166;SDS011;2097;51.104;7.150;2022-08-30T09:02:14;62.33;;;4.43;;
4166;SDS011;2097;51.104;7.150;2022-08-30T09:04:53;62.30;;;4.23;;
4166;SDS011;2097;51.104;7.150;2022-08-30T09:07:23;62.17;;;4.17;;
4166;SDS011;2097;51.104;7.150;2022-08-30T09:09:53;62.37;;;4.30;;
4166;SDS011;2097;51.104;7.150;2022-08-30T09:12:21;62.63;;;5.17;;
4166;SDS011;2097;51.104;7.150;2022-08-30T09:14:50;64.23;;;4.83;;
4166;SDS011;2097;51.104;7.150;2022-08-30T09:17:19;62.20;;;4.60;;
4166;SDS011;2097;51.104;7.150;2022-08-30T09:19:55;63.60;;;4.60;;
4166;SDS011;2097;51.104;7.150;2022-08-30T09:22:24;62.17;;;3.93;;
4166;SDS011;2097;51.104;7.150;2022-08-30T09:24:59;62.67;;;4.75;;
4166;SDS011;2097;51.104;7.150;2022-08-30T09:27:28;62.20;;;4.37;;
4166;SDS011;2097;51.104;7.150;2022-08-30T09:30:01;62.43;;;4.20;;
4166;SDS011;2097;51.104;7.150;2022-08-30T09:32:35;62.28;;;4.05;;
4166;SDS011;2097;51.104;7.150;2022-08-30T09:35:06;62.25;;;4.45;;
4166;SDS011;2097;51.104;7.150;2022-08-30T09:37:37;62.17;;;4.57;;
4166;SDS011;2097;51.104;7.150;2022-08-30T09:40:13;62.58;;;4.63;;
4166;SDS011;2097;51.104;7.150;2022-08-30T09:42:56;62.03;;;4.30;;
4166;SDS011;2097;51.104;7.150;2022-08-30T09:45:31;62.25;;;4.20;;
4166;SDS011;2097;51.104;7.150;2022-08-30T09:48:19;62.45;;;4.43;;
4166;SDS011;2097;51.104;7.150;2022-08-30T09:50:48;62.80;;;4.68;;
4166;SDS011;2097;51.104;7.150;2022-08-30T09:53:22;62.90;;;5.15;;
4166;SDS011;2097;51.104;7.150;2022-08-30T09:55:59;62.70;;;4.72;;
4166;SDS011;2097;51.104;7.150;2022-08-30T09:58:42;62.83;;;4.43;;
4166;SDS011;2097;51.104;7.150;2022-08-30T10:01:28;62.88;;;4.90;;
4166;SDS011;2097;51.104;7.150;2022-08-30T10:04:00;66.32;;;4.78;;
4166;SDS011;2097;51.104;7.150;2022-08-30T10:06:33;62.30;;;4.05;;
4166;SDS011;2097;51.104;7.150;2022-08-30T10:09:07;62.65;;;4.30;;
4166;SDS011;2097;51.104;7.150;2022-08-30T10:11:45;62.20;;;3.92;;
4166;SDS011;2097;51.104;7.150;2022-08-30T10:14:31;62.45;;;4.30;;
4166;SDS011;2097;51.104;7.150;2022-08-30T10:17:18;63.95;;;4.95;;
4166;SDS011;2097;51.104;7.150;2022-08-30T10:19:56;62.63;;;4.38;;
4166;SDS011;2097;51.104;7.150;2022-08-30T10:22:36;63.38;;;5.30;;
4166;SDS011;2097;51.104;7.150;2022-08-30T10:25:07;63.15;;;4.68;;
4166;SDS011;2097;51.104;7.150;2022-08-30T10:27:40;64.55;;;4.47;;
4166;SDS011;2097;51.104;7.150;2022-08-30T10:30:13;62.83;;;5.05;;
4166;SDS011;2097;51.104;7.150;2022-08-30T10:32:44;64.10;;;4.90;;
4166;SDS011;2097;51.104;7.150;2022-08-30T10:35:16;62.65;;;4.32;;
4166;SDS011;2097;51.104;7.150;2022-08-30T10:37:47;62.90;;;4.95;;
4166;SDS011;2097;51.104;7.150;2022-08-30T10:40:19;63.22;;;5.68;;
4166;SDS011;2097;51.104;7.150;2022-08-30T10:43:18;63.53;;;6.03;;
4166;SDS011;2097;51.104;7.150;2022-08-30T10:45:50;63.80;;;6.65;;
4166;SDS011;2097;51.104;7.150;2022-08-30T10:48:22;63.30;;;6.13;;
4166;SDS011;2097;51.104;7.150;2022-08-30T10:50:53;63.33;;;6.18;;
4166;SDS011;2097;51.104;7.150;2022-08-30T10:53:24;63.53;;;6.30;;
4166;SDS011;2097;51.104;7.150;2022-08-30T10:55:56;64.45;;;6.95;;
4166;SDS011;2097;51.104;7.150;2022-08-30T10:58:27;65.07;;;6.95;;
4166;SDS011;2097;51.104;7.150;2022-08-30T11:00:59;63.30;;;5.70;;
4166;SDS011;2097;51.104;7.150;2022-08-30T11:06:51;62.80;;;4.82;;
4166;SDS011;2097;51.104;7.150;2022-08-30T11:09:30;63.25;;;5.30;;
4166;SDS011;2097;51.104;7.150;2022-08-30T11:12:15;62.85;;;4.40;;
4166;SDS011;2097;51.104;7.150;2022-08-30T11:14:50;62.35;;;4.50;;
4166;SDS011;2097;51.104;7.150;2022-08-30T11:17:24;62.60;;;4.28;;
4166;SDS011;2097;51.104;7.150;2022-08-30T11:19:54;62.63;;;4.18;;
4166;SDS011;2097;51.104;7.150;2022-08-30T11:22:26;62.88;;;4.55;;
4166;SDS011;2097;51.104;7.150;2022-08-30T11:27:44;63.25;;;5.47;;
4166;SDS011;2097;51.104;7.150;2022-08-30T11:33:29;64.22;;;7.15;;
4166;SDS011;2097;51.104;7.150;2022-08-30T11:36:07;63.75;;;5.90;;
4166;SDS011;2097;51.104;7.150;2022-08-30T11:41:31;63.30;;;5.35;;
4166;SDS011;2097;51.104;7.150;2022-08-30T11:46:53;62.92;;;4.57;;
4166;SDS011;2097;51.104;7.150;2022-08-30T11:55:32;63.42;;;5.57;;
4166;SDS011;2097;51.104;7.150;2022-08-30T11:58:17;64.00;;;6.30;;
4166;SDS011;2097;51.104;7.150;2022-08-30T12:03:40;63.33;;;5.97;;
4166;SDS011;2097;51.104;7.150;2022-08-30T12:06:08;63.00;;;5.50;;
4166;SDS011;2097;51.104;7.150;2022-08-30T12:08:49;63.13;;;5.47;;
4166;SDS011;2097;51.104;7.150;2022-08-30T12:14:37;62.83;;;4.68;;
4166;SDS011;2097;51.104;7.150;2022-08-30T12:17:18;62.90;;;4.60;;
4166;SDS011;2097;51.104;7.150;2022-08-30T12:20:10;62.45;;;4.07;;
4166;SDS011;2097;51.104;7.150;2022-08-30T12:22:46;62.50;;;4.47;;
4166;SDS011;2097;51.104;7.150;2022-08-30T12:25:14;62.13;;;4.25;;
4166;SDS011;2097;51.104;7.150;2022-08-30T12:27:46;62.15;;;3.95;;
4166;SDS011;2097;51.104;7.150;2022-08-30T12:30:13;62.65;;;4.80;;
4166;SDS011;2097;51.104;7.150;2022-08-30T12:32:43;62.53;;;4.18;;
4166;SDS011;2097;51.104;7.150;2022-08-30T12:35:17;61.97;;;4.07;;
4166;SDS011;2097;51.104;7.150;2022-08-30T12:37:53;62.42;;;4.50;;
4166;SDS011;2097;51.104;7.150;2022-08-30T12:40:23;62.45;;;4.68;;
4166;SDS011;2097;51.104;7.150;2022-08-30T12:42:52;63.00;;;4.22;;
4166;SDS011;2097;51.104;7.150;2022-08-30T12:45:22;62.13;;;4.05;;
4166;SDS011;2097;51.104;7.150;2022-08-30T12:47:53;62.88;;;4.68;;
4166;SDS011;2097;51.104;7.150;2022-08-30T12:50:24;62.67;;;4.38;;
4166;SDS011;2097;51.104;7.150;2022-08-30T12:52:55;62.70;;;5.10;;
4166;SDS011;2097;51.104;7.150;2022-08-30T12:55:28;63.28;;;4.30;;
4166;SDS011;2097;51.104;7.150;2022-08-30T12:57:59;62.05;;;4.15;;
4166;SDS011;2097;51.104;7.150;2022-08-30T13:00:29;62.97;;;3.95;;
4166;SDS011;2097;51.104;7.150;2022-08-30T13:02:59;62.60;;;4.38;;
4166;SDS011;2097;51.104;7.150;2022-08-30T13:05:33;62.40;;;4.32;;
4166;SDS011;2097;51.104;7.150;2022-08-30T13:08:11;62.92;;;4.38;;
4166;SDS011;2097;51.104;7.150;2022-08-30T13:10:51;62.22;;;4.30;;
4166;SDS011;2097;51.104;7.150;2022-08-30T13:13:28;62.65;;;4.57;;
4166;SDS011;2097;51.104;7.150;2022-08-30T13:16:05;63.08;;;5.28;;
4166;SDS011;2097;51.104;7.150;2022-08-30T13:18:34;62.08;;;4.55;;
4166;SDS011;2097;51.104;7.150;2022-08-30T13:21:20;62.63;;;4.28;;
4166;SDS011;2097;51.104;7.150;2022-08-30T13:23:50;62.15;;;4.75;;
4166;SDS011;2097;51.104;7.150;2022-08-30T13:26:20;62.10;;;4.45;;
4166;SDS011;2097;51.104;7.150;2022-08-30T13:28:49;62.92;;;4.95;;
4166;SDS011;2097;51.104;7.150;2022-08-30T13:31:17;62.03;;;4.60;;
4166;SDS011;2097;51.104;7.150;2022-08-30T13:33:44;62.70;;;4.63;;
4166;SDS011;2097;51.104;7.150;2022-08-30T13:36:11;62.50;;;4.25;;
4166;SDS011;2097;51.104;7.150;2022-08-30T13:38:38;62.25;;;4.18;;
4166;SDS011;2097;51.104;7.150;2022-08-30T13:41:06;62.60;;;4.95;;
4166;SDS011;2097;51.104;7.150;2022-08-30T13:43:33;62.60;;;4.28;;
4166;SDS011;2097;51.104;7.150;2022-08-30T13:46:01;63.35;;;4.20;;
4166;SDS011;2097;51.104;7.150;2022-08-30T13:48:29;62.50;;;4.75;;
4166;SDS011;2097;51.104;7.150;2022-08-30T13:50:57;62.75;;;4.30;;
4166;SDS011;2097;51.104;7.150;2022-08-30T13:53:24;62.10;;;4.35;;
4166;SDS011;2097;51.104;7.150;2022-08-30T13:55:51;62.78;;;4.68;;
4166;SDS011;2097;51.104;7.150;2022-08-30T13:58:18;62.58;;;5.07;;
4166;SDS011;2097;51.104;7.150;2022-08-30T14:00:44;63.70;;;5.50;;
4166;SDS011;2097;51.104;7.150;2022-08-30T14:03:13;63.35;;;5.80;;
4166;SDS011;2097;51.104;7.150;2022-08-30T14:05:40;63.45;;;5.18;;
4166;SDS011;2097;51.104;7.150;2022-08-30T14:08:16;63.13;;;5.88;;
4166;SDS011;2097;51.104;7.150;2022-08-30T14:10:45;63.50;;;6.20;;
4166;SDS011;2097;51.104;7.150;2022-08-30T14:13:12;63.47;;;7.10;;
4166;SDS011;2097;51.104;7.150;2022-08-30T14:15:39;63.88;;;6.93;;
4166;SDS011;2097;51.104;7.150;2022-08-30T14:18:06;64.22;;;8.20;;
4166;SDS011;2097;51.104;7.150;2022-08-30T14:20:34;65.25;;;9.45;;
4166;SDS011;2097;51.104;7.150;2022-08-30T14:23:01;65.45;;;7.95;;
4166;SDS011;2097;51.104;7.150;2022-08-30T14:25:28;64.20;;;7.45;;
4166;SDS011;2097;51.104;7.150;2022-08-30T14:27:55;63.40;;;6.38;;
4166;SDS011;2097;51.104;7.150;2022-08-30T14:30:23;62.72;;;6.20;;
4166;SDS011;2097;51.104;7.150;2022-08-30T14:32:50;63.03;;;5.55;;
4166;SDS011;2097;51.104;7.150;2022-08-30T14:35:17;62.28;;;5.38;;
4166;SDS011;2097;51.104;7.150;2022-08-30T14:37:46;63.00;;;5.07;;
4166;SDS011;2097;51.104;7.150;2022-08-30T14:40:13;63.13;;;5.82;;
4166;SDS011;2097;51.104;7.150;2022-08-30T14:42:42;62.85;;;4.95;;
4166;SDS011;2097;51.104;7.150;2022-08-30T14:45:09;63.45;;;5.88;;
4166;SDS011;2097;51.104;7.150;2022-08-30T14:47:36;62.53;;;5.70;;
4166;SDS011;2097;51.104;7.150;2022-08-30T14:50:03;62.70;;;5.45;;
4166;SDS011;2097;51.104;7.150;2022-08-30T14:52:31;62.95;;;5.78;;
4166;SDS011;2097;51.104;7.150;2022-08-30T14:55:00;62.95;;;5.50;;
4166;SDS011;2097;51.104;7.150;2022-08-30T14:57:28;62.83;;;5.47;;
4166;SDS011;2097;51.104;7.150;2022-08-30T14:59:55;63.03;;;5.22;;
4166;SDS011;2097;51.104;7.150;2022-08-30T15:02:22;64.18;;;5.28;;
4166;SDS011;2097;51.104;7.150;2022-08-30T15:04:48;63.17;;;5.45;;
4166;SDS011;2097;51.104;7.150;2022-08-30T15:07:15;63.95;;;6.20;;
4166;SDS011;2097;51.104;7.150;2022-08-30T15:09:42;62.85;;;5.68;;
4166;SDS011;2097;51.104;7.150;2022-08-30T15:12:11;62.80;;;5.18;;
4166;SDS011;2097;51.104;7.150;2022-08-30T15:14:37;63.22;;;4.78;;
4166;SDS011;2097;51.104;7.150;2022-08-30T15:17:04;62.35;;;4.85;;
4166;SDS011;2097;51.104;7.150;2022-08-30T15:19:31;62.95;;;5.78;;
4166;SDS011;2097;51.104;7.150;2022-08-30T15:21:58;63.38;;;6.00;;
4166;SDS011;2097;51.104;7.150;2022-08-30T15:24:27;64.70;;;5.80;;
4166;SDS011;2097;51.104;7.150;2022-08-30T15:26:54;63.97;;;5.15;;
4166;SDS011;2097;51.104;7.150;2022-08-30T15:29:23;63.63;;;6.00;;
4166;SDS011;2097;51.104;7.150;2022-08-30T15:31:49;63.30;;;5.93;;
4166;SDS011;2097;51.104;7.150;2022-08-30T15:34:18;63.33;;;5.22;;
4166;SDS011;2097;51.104;7.150;2022-08-30T15:36:46;64.55;;;6.07;;
4166;SDS011;2097;51.104;7.150;2022-08-30T15:39:14;63.45;;;6.45;;
4166;SDS011;2097;51.104;7.150;2022-08-30T15:41:42;62.83;;;5.25;;